Time;durP1;ratioP1;P1;durP2;ratioP2;P2;SDS_P1;SDS_P2;PMS_P1;PMS_P2;Temp;Humidity;BMP_temperature;BMP_pressure;BME280_temperature;BME280_humidity;BME280_pressure;Samples;Min_cycle;Max_cycle;Signal;HPM_P1;HPM_P2
2023/10/29 00:00:11;;;;;;;5.95;0.98;;;;;;;;;;5014364;28;20803;-84
2023/10/29 00:02:36;;;;;;;4.63;0.57;;;;;;;;;;5013186;28;20021;-84
2023/10/29 00:05:02;;;;;;;8.07;1.80;;;;;;;;;;5013730;28;20018;-84
2023/10/29 00:07:27;;;;;;;9.38;1.45;;;;;;;;;;5014481;28;20022;-84
2023/10/29 00:09:52;;;;;;;6.60;1.60;;;;;;;;;;5014218;28;20052;-86
2023/10/29 00:12:17;;;;;;;8.15;1.25;;;;;;;;;;5013268;28;20370;-86
2023/10/29 00:14:42;;;;;;;12.50;1.63;;;;;;;;;;5014474;28;20053;-86
2023/10/29 00:17:08;;;;;;;9.00;0.90;;;;;;;;;;5014487;28;20390;-86
2023/10/29 00:19:33;;;;;;;9.00;1.23;;;;;;;;;;5014063;28;20298;-85
2023/10/29 00:21:58;;;;;;;6.65;1.00;;;;;;;;;;5013308;28;20307;-87
2023/10/29 00:24:23;;;;;;;11.43;1.37;;;;;;;;;;5014092;28;20029;-86
2023/10/29 00:26:49;;;;;;;11.43;1.33;;;;;;;;;;5013064;28;20272;-86
2023/10/29 00:29:14;;;;;;;9.50;1.43;;;;;;;;;;5013910;28;20076;-84
2023/10/29 00:31:39;;;;;;;7.00;1.43;;;;;;;;;;5014149;28;20286;-84
2023/10/29 00:34:04;;;;;;;8.70;1.33;;;;;;;;;;5014009;28;20799;-84
2023/10/29 00:36:30;;;;;;;8.55;1.20;;;;;;;;;;5012034;28;20026;-86
2023/10/29 00:38:55;;;;;;;4.47;0.93;;;;;;;;;;5013666;28;20056;-86
2023/10/29 00:41:21;;;;;;;16.00;1.58;;;;;;;;;;5013713;28;20028;-84
2023/10/29 00:43:46;;;;;;;7.68;1.25;;;;;;;;;;5011958;28;20089;-84
2023/10/29 00:46:13;;;;;;;6.82;1.17;;;;;;;;;;5029531;28;20022;-84
2023/10/29 00:48:38;;;;;;;13.68;1.10;;;;;;;;;;5028214;28;20014;-87
2023/10/29 00:51:04;;;;;;;13.80;1.63;;;;;;;;;;5010558;28;20021;-87
2023/10/29 00:53:29;;;;;;;6.35;1.17;;;;;;;;;;5012017;28;20499;-87
2023/10/29 00:55:55;;;;;;;16.17;1.70;;;;;;;;;;5013440;28;20060;-84
2023/10/29 00:58:20;;;;;;;7.72;1.23;;;;;;;;;;5011319;28;20026;-84
2023/10/29 01:00:45;;;;;;;7.32;1.20;;;;;;;;;;5013509;28;20350;-86
2023/10/29 01:03:11;;;;;;;5.97;1.10;;;;;;;;;;5013416;28;20116;-85
2023/10/29 01:05:37;;;;;;;12.90;1.40;;;;;;;;;;5013404;28;20018;-86
2023/10/29 01:08:05;;;;;;;7.97;1.75;;;;;;;;;;5012160;28;20414;-87
2023/10/29 01:10:30;;;;;;;6.60;1.10;;;;;;;;;;4999225;28;20539;-86
2023/10/29 01:12:55;;;;;;;6.10;1.27;;;;;;;;;;5012193;28;20101;-87
2023/10/29 01:15:20;;;;;;;7.10;1.47;;;;;;;;;;5013298;28;20025;-86
2023/10/29 01:17:46;;;;;;;14.93;3.20;;;;;;;;;;5011823;28;20649;-86
2023/10/29 01:20:12;;;;;;;7.20;1.13;;;;;;;;;;5012790;28;20259;-86
2023/10/29 01:22:37;;;;;;;13.80;1.30;;;;;;;;;;5012818;28;20411;-84
2023/10/29 01:25:07;;;;;;;13.40;1.25;;;;;;;;;;5010641;28;20042;-86
2023/10/29 01:27:33;;;;;;;11.50;1.23;;;;;;;;;;5011040;28;20393;-87
2023/10/29 01:29:58;;;;;;;14.70;1.83;;;;;;;;;;5011186;28;20018;-86
2023/10/29 01:32:23;;;;;;;15.10;1.83;;;;;;;;;;5011563;28;20514;-86
2023/10/29 01:34:50;;;;;;;4.28;1.00;;;;;;;;;;5013187;28;20718;-84
2023/10/29 01:37:15;;;;;;;5.72;1.70;;;;;;;;;;5012799;28;20113;-87
2023/10/29 01:39:40;;;;;;;8.85;1.83;;;;;;;;;;5012513;28;20465;-87
2023/10/29 01:42:05;;;;;;;5.37;1.30;;;;;;;;;;5011887;28;20096;-86
2023/10/29 01:44:30;;;;;;;11.85;1.52;;;;;;;;;;5012685;28;20331;-87
2023/10/29 01:46:56;;;;;;;7.70;1.47;;;;;;;;;;5011790;28;20030;-86
2023/10/29 01:49:21;;;;;;;10.30;1.10;;;;;;;;;;5012240;28;20275;-86
2023/10/29 01:51:46;;;;;;;5.05;0.93;;;;;;;;;;5012506;28;20279;-87
2023/10/29 01:54:11;;;;;;;10.33;1.60;;;;;;;;;;5012580;28;20018;-86
2023/10/29 01:56:37;;;;;;;8.87;1.30;;;;;;;;;;5012279;28;20378;-86
2023/10/29 01:59:03;;;;;;;7.60;0.95;;;;;;;;;;5011787;28;20301;-86
2023/10/29 02:01:28;;;;;;;9.07;1.58;;;;;;;;;;5009935;28;20026;-86
2023/10/29 02:03:53;;;;;;;5.80;1.73;;;;;;;;;;5009843;28;20476;-86
2023/10/29 02:06:19;;;;;;;6.07;1.13;;;;;;;;;;5012276;28;20255;-87
2023/10/29 02:08:45;;;;;;;10.70;1.50;;;;;;;;;;5011652;28;20278;-87
2023/10/29 02:11:10;;;;;;;8.52;1.50;;;;;;;;;;5011967;28;20026;-87
2023/10/29 02:13:35;;;;;;;9.97;1.27;;;;;;;;;;5011303;28;20026;-87
2023/10/29 02:16:00;;;;;;;11.07;1.25;;;;;;;;;;5012179;28;20252;-87
2023/10/29 02:18:26;;;;;;;13.47;1.30;;;;;;;;;;5009910;28;20468;-87
2023/10/29 02:20:51;;;;;;;12.83;2.30;;;;;;;;;;5012110;28;20270;-87
2023/10/29 02:23:16;;;;;;;9.53;1.93;;;;;;;;;;5010628;28;20278;-86
2023/10/29 02:25:41;;;;;;;15.73;4.63;;;;;;;;;;5011591;28;20262;-87
2023/10/29 02:28:07;;;;;;;11.90;1.33;;;;;;;;;;5011003;28;20263;-87
2023/10/29 02:30:32;;;;;;;5.00;0.82;;;;;;;;;;5010787;28;20022;-87
2023/10/29 02:32:57;;;;;;;5.13;1.25;;;;;;;;;;5009630;28;20041;-87
2023/10/29 02:35:22;;;;;;;5.57;0.95;;;;;;;;;;5011875;28;20017;-85
2023/10/29 02:37:48;;;;;;;10.48;1.50;;;;;;;;;;5011321;28;20477;-87
2023/10/29 02:40:13;;;;;;;10.77;1.33;;;;;;;;;;5012069;28;20025;-87
2023/10/29 02:42:38;;;;;;;9.30;1.42;;;;;;;;;;5011090;28;20255;-85
2023/10/29 02:45:04;;;;;;;7.13;2.47;;;;;;;;;;5011795;28;20011;-87
2023/10/29 02:47:29;;;;;;;13.07;1.42;;;;;;;;;;5010897;28;20026;-87
2023/10/29 02:49:54;;;;;;;7.10;1.05;;;;;;;;;;5011785;28;20104;-85
2023/10/29 02:52:20;;;;;;;15.77;1.37;;;;;;;;;;5011588;28;20092;-85
2023/10/29 02:54:45;;;;;;;8.20;1.30;;;;;;;;;;5011552;28;20263;-85
2023/10/29 02:57:10;;;;;;;6.77;0.97;;;;;;;;;;5010989;28;20548;-85
2023/10/29 02:59:35;;;;;;;9.27;1.05;;;;;;;;;;5011697;28;20259;-85
2023/10/29 03:02:01;;;;;;;4.03;0.98;;;;;;;;;;5009555;28;20033;-85
2023/10/29 03:04:26;;;;;;;3.33;0.70;;;;;;;;;;5011656;28;20084;-85
2023/10/29 03:06:51;;;;;;;5.45;1.33;;;;;;;;;;5011257;28;20622;-85
2023/10/29 03:09:16;;;;;;;7.33;0.90;;;;;;;;;;5011656;28;20026;-84
2023/10/29 03:11:41;;;;;;;5.50;1.55;;;;;;;;;;5010969;28;20361;-85
2023/10/29 03:14:07;;;;;;;10.00;1.10;;;;;;;;;;5009398;28;20046;-85
2023/10/29 03:16:32;;;;;;;11.88;1.38;;;;;;;;;;5010095;28;20026;-84
2023/10/29 03:18:57;;;;;;;4.72;1.00;;;;;;;;;;5010369;28;20514;-84
2023/10/29 03:21:22;;;;;;;7.63;0.73;;;;;;;;;;5011716;28;20495;-84
2023/10/29 03:23:48;;;;;;;6.22;0.68;;;;;;;;;;5010431;28;20817;-84
2023/10/29 03:26:13;;;;;;;14.20;0.98;;;;;;;;;;5009860;28;20021;-85
2023/10/29 03:28:39;;;;;;;3.50;0.60;;;;;;;;;;5011244;28;20021;-85
2023/10/29 03:31:12;;;;;;;5.30;0.80;;;;;;;;;;5009746;28;20362;-85
2023/10/29 03:33:37;;;;;;;6.63;0.85;;;;;;;;;;5010196;28;20029;-86
2023/10/29 03:36:04;;;;;;;3.93;0.80;;;;;;;;;;5011448;28;20025;-85
2023/10/29 03:38:29;;;;;;;4.72;0.80;;;;;;;;;;5013933;28;20283;-85
2023/10/29 03:40:54;;;;;;;6.33;0.90;;;;;;;;;;5015100;28;20048;-85
2023/10/29 03:43:19;;;;;;;5.50;0.95;;;;;;;;;;5012935;28;20754;-84
2023/10/29 03:45:45;;;;;;;5.45;0.65;;;;;;;;;;5013792;28;20229;-84
2023/10/29 03:48:12;;;;;;;4.75;0.70;;;;;;;;;;5014220;28;20024;-84
2023/10/29 03:50:37;;;;;;;4.57;0.90;;;;;;;;;;5013331;28;20522;-84
2023/10/29 03:53:02;;;;;;;6.30;1.33;;;;;;;;;;5012032;28;20034;-85
2023/10/29 03:55:27;;;;;;;7.13;1.50;;;;;;;;;;5003626;28;20259;-84
2023/10/29 03:57:53;;;;;;;8.43;1.42;;;;;;;;;;5014079;28;20274;-85
2023/10/29 04:00:18;;;;;;;4.93;1.13;;;;;;;;;;5014659;28;20503;-85
2023/10/29 04:02:43;;;;;;;7.77;0.93;;;;;;;;;;5012793;28;20576;-84
2023/10/29 04:05:09;;;;;;;8.50;1.02;;;;;;;;;;5013443;28;20854;-84
2023/10/29 04:07:34;;;;;;;6.18;1.23;;;;;;;;;;5012521;28;20388;-86
2023/10/29 04:09:59;;;;;;;3.90;1.13;;;;;;;;;;5014567;28;20017;-86
2023/10/29 04:12:27;;;;;;;6.88;1.25;;;;;;;;;;5011231;28;20294;-84
2023/10/29 04:14:53;;;;;;;10.63;1.20;;;;;;;;;;5001427;28;20017;-84
2023/10/29 04:17:18;;;;;;;8.97;1.37;;;;;;;;;;5006908;28;20026;-84
2023/10/29 04:19:43;;;;;;;8.37;0.83;;;;;;;;;;5000056;28;20256;-84
2023/10/29 04:22:08;;;;;;;5.37;0.70;;;;;;;;;;5013239;28;20637;-86
2023/10/29 04:24:33;;;;;;;6.95;0.73;;;;;;;;;;5012815;28;20310;-88
2023/10/29 04:26:59;;;;;;;4.97;1.35;;;;;;;;;;5011908;28;20365;-87
2023/10/29 04:29:24;;;;;;;4.20;0.80;;;;;;;;;;5013875;28;20033;-87
2023/10/29 04:31:49;;;;;;;8.70;1.27;;;;;;;;;;5012376;28;20018;-84
2023/10/29 04:34:14;;;;;;;3.42;0.80;;;;;;;;;;4995697;28;20632;-85
2023/10/29 04:36:42;;;;;;;4.35;0.85;;;;;;;;;;4996620;28;20022;-85
2023/10/29 04:39:07;;;;;;;8.85;1.23;;;;;;;;;;5013107;28;20013;-84
2023/10/29 04:41:33;;;;;;;8.63;1.13;;;;;;;;;;5013110;28;20049;-84
2023/10/29 04:43:58;;;;;;;6.38;1.00;;;;;;;;;;5013877;28;20030;-84
2023/10/29 04:46:23;;;;;;;4.05;0.60;;;;;;;;;;5013098;28;20018;-85
2023/10/29 04:48:48;;;;;;;2.53;0.60;;;;;;;;;;5010894;28;20058;-84
2023/10/29 04:51:14;;;;;;;7.75;0.98;;;;;;;;;;4996918;28;20015;-84
2023/10/29 04:53:39;;;;;;;2.35;0.57;;;;;;;;;;5013408;28;20033;-84
2023/10/29 04:56:04;;;;;;;2.97;0.60;;;;;;;;;;5012886;28;20034;-84
2023/10/29 04:58:31;;;;;;;5.38;0.50;;;;;;;;;;5002947;28;20271;-85
2023/10/29 05:00:57;;;;;;;4.50;0.60;;;;;;;;;;5010704;28;20408;-84
2023/10/29 05:03:22;;;;;;;3.97;0.77;;;;;;;;;;5013756;28;20018;-84
2023/10/29 05:05:47;;;;;;;2.90;0.55;;;;;;;;;;4997856;28;20030;-84
2023/10/29 05:08:13;;;;;;;2.80;0.50;;;;;;;;;;5012803;28;20423;-85
2023/10/29 05:10:38;;;;;;;6.13;0.80;;;;;;;;;;5012283;28;20657;-84
2023/10/29 05:13:03;;;;;;;1.73;0.50;;;;;;;;;;5012099;28;20051;-84
2023/10/29 05:15:29;;;;;;;6.13;0.67;;;;;;;;;;5020695;28;20818;-84
2023/10/29 05:17:55;;;;;;;2.67;0.50;;;;;;;;;;5013150;28;20258;-85
2023/10/29 05:20:20;;;;;;;12.02;1.15;;;;;;;;;;5013199;28;20387;-84
2023/10/29 05:22:45;;;;;;;3.75;0.43;;;;;;;;;;5011677;28;20053;-85
2023/10/29 05:25:10;;;;;;;4.85;0.80;;;;;;;;;;5011524;28;20030;-84
2023/10/29 05:27:36;;;;;;;4.43;0.70;;;;;;;;;;5012024;28;20032;-84
2023/10/29 05:30:02;;;;;;;8.05;2.25;;;;;;;;;;5013000;28;20412;-84
2023/10/29 05:32:28;;;;;;;3.95;0.90;;;;;;;;;;5012869;28;20491;-84
2023/10/29 05:34:54;;;;;;;3.70;0.65;;;;;;;;;;5011671;28;20021;-84
2023/10/29 05:37:19;;;;;;;6.85;0.90;;;;;;;;;;5012066;28;20065;-84
2023/10/29 05:39:44;;;;;;;5.30;0.75;;;;;;;;;;5012934;28;20022;-84
2023/10/29 05:42:10;;;;;;;3.63;0.45;;;;;;;;;;5011358;28;20021;-84
2023/10/29 05:44:35;;;;;;;3.42;0.50;;;;;;;;;;5013258;28;20049;-84
2023/10/29 05:47:00;;;;;;;6.32;1.15;;;;;;;;;;5013284;28;20483;-84
2023/10/29 05:49:25;;;;;;;6.53;1.20;;;;;;;;;;5010632;28;20025;-86
2023/10/29 05:51:51;;;;;;;4.07;0.65;;;;;;;;;;5012118;28;20271;-87
2023/10/29 05:54:18;;;;;;;2.42;0.60;;;;;;;;;;5012046;28;20040;-86
2023/10/29 05:56:43;;;;;;;2.83;0.90;;;;;;;;;;4995440;28;20014;-86
2023/10/29 05:59:09;;;;;;;5.03;0.50;;;;;;;;;;4990951;28;20389;-87
2023/10/29 06:01:34;;;;;;;9.40;0.57;;;;;;;;;;4992852;28;20033;-86
2023/10/29 06:03:59;;;;;;;5.15;0.98;;;;;;;;;;4992632;28;20259;-86
2023/10/29 06:06:24;;;;;;;6.30;0.80;;;;;;;;;;5009840;28;20025;-86
2023/10/29 06:08:49;;;;;;;7.50;1.17;;;;;;;;;;5011994;28;20488;-86
2023/10/29 06:11:15;;;;;;;11.73;1.10;;;;;;;;;;5011463;28;20764;-87
2023/10/29 06:13:43;;;;;;;3.97;0.60;;;;;;;;;;5011607;28;20271;-87
2023/10/29 06:16:09;;;;;;;3.70;0.65;;;;;;;;;;5010555;28;20030;-86
2023/10/29 06:18:35;;;;;;;3.08;0.55;;;;;;;;;;5010974;28;20376;-86
2023/10/29 06:21:01;;;;;;;5.28;0.65;;;;;;;;;;5010893;28;20440;-86
2023/10/29 06:23:27;;;;;;;4.03;0.95;;;;;;;;;;5011534;28;20030;-87
2023/10/29 06:25:52;;;;;;;3.72;0.75;;;;;;;;;;5010921;28;20528;-86
2023/10/29 06:28:17;;;;;;;5.93;0.45;;;;;;;;;;5011506;28;20014;-86
2023/10/29 06:30:44;;;;;;;4.23;0.53;;;;;;;;;;5010254;28;20483;-88
2023/10/29 06:33:09;;;;;;;9.48;1.17;;;;;;;;;;5006877;28;20303;-86
2023/10/29 06:35:34;;;;;;;6.20;0.55;;;;;;;;;;5004851;28;20033;-86
2023/10/29 06:37:59;;;;;;;8.68;1.45;;;;;;;;;;5010613;28;20026;-86
2023/10/29 06:40:25;;;;;;;10.50;1.73;;;;;;;;;;5011103;28;20153;-86
2023/10/29 06:42:51;;;;;;;12.35;2.50;;;;;;;;;;5011698;28;20358;-86
2023/10/29 06:45:16;;;;;;;20.75;1.35;;;;;;;;;;5011398;28;20054;-86
2023/10/29 06:47:41;;;;;;;10.88;1.45;;;;;;;;;;5011759;28;20075;-87
2023/10/29 06:50:07;;;;;;;4.88;1.00;;;;;;;;;;5010502;28;20460;-86
2023/10/29 06:52:32;;;;;;;7.25;2.08;;;;;;;;;;5009549;28;20432;-86
2023/10/29 06:54:57;;;;;;;11.37;2.53;;;;;;;;;;5010675;28;20456;-86
2023/10/29 06:57:22;;;;;;;12.07;1.57;;;;;;;;;;5011594;28;20358;-86
2023/10/29 06:59:47;;;;;;;17.63;1.60;;;;;;;;;;5011222;28;20259;-86
2023/10/29 07:02:13;;;;;;;6.17;0.90;;;;;;;;;;5011368;28;20097;-86
2023/10/29 07:04:38;;;;;;;7.77;0.97;;;;;;;;;;5011305;28;20366;-86
2023/10/29 07:07:03;;;;;;;8.20;1.47;;;;;;;;;;5011906;28;20251;-86
2023/10/29 07:09:28;;;;;;;5.55;0.63;;;;;;;;;;5008076;28;20299;-86
2023/10/29 07:11:55;;;;;;;4.67;0.83;;;;;;;;;;5014630;28;20040;-86
2023/10/29 07:14:20;;;;;;;11.90;1.00;;;;;;;;;;5013140;28;20256;-85
2023/10/29 07:16:45;;;;;;;6.90;0.90;;;;;;;;;;5010175;28;20084;-85
2023/10/29 07:19:11;;;;;;;8.97;0.60;;;;;;;;;;5013700;28;20033;-85
2023/10/29 07:21:36;;;;;;;6.22;0.90;;;;;;;;;;5014817;28;20279;-86
2023/10/29 07:24:04;;;;;;;5.68;1.02;;;;;;;;;;5014146;28;20383;-85
2023/10/29 07:26:29;;;;;;;6.70;1.23;;;;;;;;;;5015073;28;20049;-83
2023/10/29 07:28:54;;;;;;;6.78;0.88;;;;;;;;;;5011498;28;20068;-84
2023/10/29 07:31:19;;;;;;;4.67;0.70;;;;;;;;;;5014395;28;20068;-86
2023/10/29 07:33:45;;;;;;;3.67;0.70;;;;;;;;;;5013434;28;20279;-85
2023/10/29 07:36:10;;;;;;;7.18;1.52;;;;;;;;;;5009987;28;20271;-86
2023/10/29 07:38:35;;;;;;;6.38;1.00;;;;;;;;;;5011509;28;20026;-86
2023/10/29 07:41:01;;;;;;;8.60;1.27;;;;;;;;;;5011224;28;20021;-85
2023/10/29 07:43:26;;;;;;;7.53;0.55;;;;;;;;;;5011807;28;20255;-83
2023/10/29 07:45:51;;;;;;;2.97;0.70;;;;;;;;;;5013466;28;20105;-83
2023/10/29 07:48:17;;;;;;;5.75;1.20;;;;;;;;;;5014709;28;20262;-83
2023/10/29 07:50:49;;;;;;;6.45;1.35;;;;;;;;;;5014735;28;20021;-83
2023/10/29 07:53:15;;;;;;;4.10;0.90;;;;;;;;;;5013544;28;20026;-83
2023/10/29 07:55:40;;;;;;;13.10;1.10;;;;;;;;;;5012780;28;20052;-83
2023/10/29 07:58:05;;;;;;;6.00;0.80;;;;;;;;;;5013355;28;20271;-83
2023/10/29 08:00:31;;;;;;;6.78;0.75;;;;;;;;;;5013995;28;20267;-83
2023/10/29 08:02:56;;;;;;;7.35;0.93;;;;;;;;;;5011785;28;20029;-83
2023/10/29 08:05:21;;;;;;;3.33;0.50;;;;;;;;;;5011494;28;20241;-84
2023/10/29 08:07:46;;;;;;;4.82;1.05;;;;;;;;;;5014659;28;20314;-84
2023/10/29 08:10:12;;;;;;;3.00;0.75;;;;;;;;;;5010997;28;20396;-83
2023/10/29 08:12:37;;;;;;;5.38;0.47;;;;;;;;;;5005851;28;20034;-83
2023/10/29 08:15:02;;;;;;;5.03;0.80;;;;;;;;;;4997073;28;20045;-83
2023/10/29 08:17:29;;;;;;;7.20;0.88;;;;;;;;;;5013966;28;20472;-83
2023/10/29 08:19:54;;;;;;;4.95;0.70;;;;;;;;;;5013504;28;20014;-83
2023/10/29 08:22:19;;;;;;;6.38;1.40;;;;;;;;;;5011470;28;20029;-85
2023/10/29 08:24:44;;;;;;;5.22;1.10;;;;;;;;;;5019190;28;20010;-85
2023/10/29 08:27:10;;;;;;;4.15;0.77;;;;;;;;;;5024904;28;20022;-84
2023/10/29 08:29:36;;;;;;;7.20;0.90;;;;;;;;;;5012807;28;20147;-84
2023/10/29 08:32:01;;;;;;;7.93;1.05;;;;;;;;;;5011282;28;20302;-85
2023/10/29 08:34:26;;;;;;;6.57;1.00;;;;;;;;;;5013091;28;20481;-86
2023/10/29 08:36:52;;;;;;;9.07;0.93;;;;;;;;;;5002589;28;20037;-85
2023/10/29 08:39:17;;;;;;;6.38;0.93;;;;;;;;;;5004906;28;20403;-87
2023/10/29 08:41:42;;;;;;;8.33;0.90;;;;;;;;;;5010603;28;20048;-87
2023/10/29 08:44:07;;;;;;;2.95;0.73;;;;;;;;;;5003214;28;20271;-86
2023/10/29 08:46:33;;;;;;;6.73;1.37;;;;;;;;;;5011409;28;20033;-84
2023/10/29 08:48:58;;;;;;;4.23;0.70;;;;;;;;;;5010652;28;20279;-86
2023/10/29 08:51:23;;;;;;;9.43;1.92;;;;;;;;;;5007182;28;20294;-87
2023/10/29 08:53:49;;;;;;;6.17;1.17;;;;;;;;;;5008178;28;20121;-87
2023/10/29 08:56:15;;;;;;;8.30;1.13;;;;;;;;;;5005497;28;20342;-88
2023/10/29 08:58:40;;;;;;;4.40;0.73;;;;;;;;;;5010892;28;20021;-87
2023/10/29 09:01:06;;;;;;;4.25;0.93;;;;;;;;;;4998117;28;20372;-88
2023/10/29 09:03:31;;;;;;;6.93;1.00;;;;;;;;;;5003175;28;20022;-88
2023/10/29 09:06:00;;;;;;;9.23;2.13;;;;;;;;;;5007815;28;20026;-87
2023/10/29 09:08:25;;;;;;;7.10;0.93;;;;;;;;;;5009038;28;20294;-86
2023/10/29 09:10:51;;;;;;;5.03;0.80;;;;;;;;;;5006994;28;20488;-87
2023/10/29 09:13:19;;;;;;;7.50;1.13;;;;;;;;;;5008981;28;20357;-88
2023/10/29 09:15:44;;;;;;;9.50;1.23;;;;;;;;;;4989341;28;20018;-87
2023/10/29 09:18:09;;;;;;;7.73;1.33;;;;;;;;;;5001638;28;20032;-86
2023/10/29 09:20:38;;;;;;;5.63;1.03;;;;;;;;;;5006991;28;20267;-86
2023/10/29 09:23:04;;;;;;;10.13;1.83;;;;;;;;;;4991699;28;20278;-86
2023/10/29 09:25:29;;;;;;;10.35;1.55;;;;;;;;;;5008633;28;20109;-87
2023/10/29 09:27:55;;;;;;;11.53;1.37;;;;;;;;;;5012217;28;20101;-86
2023/10/29 09:30:20;;;;;;;5.57;1.50;;;;;;;;;;5019430;28;20708;-86
2023/10/29 09:32:46;;;;;;;7.67;1.17;;;;;;;;;;5030698;28;20805;-87
2023/10/29 09:35:12;;;;;;;10.10;2.30;;;;;;;;;;5011834;28;20255;-87
2023/10/29 09:37:37;;;;;;;13.98;1.98;;;;;;;;;;5010892;28;20496;-89
2023/10/29 09:40:08;;;;;;;4.75;1.20;;;;;;;;;;5011432;28;20021;-86
2023/10/29 09:42:34;;;;;;;8.43;1.63;;;;;;;;;;5011571;28;20021;-86
2023/10/29 09:45:00;;;;;;;7.35;1.48;;;;;;;;;;5010980;28;20032;-86
2023/10/29 09:47:26;;;;;;;11.93;1.40;;;;;;;;;;5011329;28;20029;-87
2023/10/29 09:49:54;;;;;;;13.20;1.67;;;;;;;;;;5010659;28;20285;-89
2023/10/29 09:52:19;;;;;;;12.25;2.03;;;;;;;;;;5009596;28;20033;-87
2023/10/29 09:54:46;;;;;;;17.38;1.70;;;;;;;;;;5010815;28;20040;-87
2023/10/29 09:57:12;;;;;;;12.27;1.85;;;;;;;;;;5009915;28;20093;-89
2023/10/29 09:59:37;;;;;;;10.30;1.73;;;;;;;;;;5011293;28;20427;-87
2023/10/29 10:02:02;;;;;;;13.48;2.38;;;;;;;;;;5011895;28;20054;-87
2023/10/29 10:04:28;;;;;;;12.88;2.92;;;;;;;;;;5012157;28;20030;-87
2023/10/29 10:06:56;;;;;;;10.10;2.13;;;;;;;;;;5009991;28;20022;-87
2023/10/29 10:09:21;;;;;;;9.95;2.25;;;;;;;;;;5011730;28;20258;-87
2023/10/29 10:12:00;;;;;;;15.73;2.10;;;;;;;;;;5011019;28;20266;-87
2023/10/29 10:14:26;;;;;;;10.73;1.70;;;;;;;;;;5011994;28;20696;-87
2023/10/29 10:17:07;;;;;;;18.83;3.20;;;;;;;;;;5010988;28;20087;-88
2023/10/29 10:19:33;;;;;;;13.90;1.70;;;;;;;;;;5012007;28;20022;-86
2023/10/29 10:21:58;;;;;;;10.10;1.73;;;;;;;;;;5011329;28;20033;-87
2023/10/29 10:24:34;;;;;;;13.70;2.37;;;;;;;;;;5011801;28;20757;-87
2023/10/29 10:27:00;;;;;;;16.17;2.05;;;;;;;;;;5011030;28;20621;-88
2023/10/29 10:29:29;;;;;;;16.60;2.97;;;;;;;;;;5009059;28;20096;-87
2023/10/29 10:32:04;;;;;;;13.38;2.03;;;;;;;;;;5011146;28;20310;-87
2023/10/29 10:34:31;;;;;;;15.90;2.08;;;;;;;;;;5008218;28;20014;-87
2023/10/29 10:37:00;;;;;;;15.82;1.80;;;;;;;;;;5010627;28;20025;-87
2023/10/29 10:39:31;;;;;;;17.88;2.03;;;;;;;;;;5011615;28;20018;-86
2023/10/29 10:41:56;;;;;;;18.65;2.42;;;;;;;;;;5011623;28;20112;-88
2023/10/29 10:44:22;;;;;;;16.42;2.30;;;;;;;;;;5010795;28;20519;-86
2023/10/29 10:46:48;;;;;;;15.55;2.33;;;;;;;;;;5010126;28;20018;-86
2023/10/29 10:49:14;;;;;;;10.13;1.92;;;;;;;;;;5011205;28;20022;-87
2023/10/29 10:51:40;;;;;;;16.35;2.40;;;;;;;;;;5011039;28;20049;-87
2023/10/29 10:54:05;;;;;;;23.63;2.72;;;;;;;;;;5011184;28;20029;-87
2023/10/29 10:56:32;;;;;;;18.27;4.35;;;;;;;;;;5011670;28;20104;-86
2023/10/29 10:58:58;;;;;;;20.42;2.45;;;;;;;;;;5011717;28;20018;-87
2023/10/29 11:01:24;;;;;;;17.85;2.92;;;;;;;;;;5010551;28;20382;-87
2023/10/29 11:03:50;;;;;;;15.35;3.13;;;;;;;;;;5010440;28;20083;-84
2023/10/29 11:06:15;;;;;;;20.70;2.90;;;;;;;;;;5010353;28;20089;-86
2023/10/29 11:08:41;;;;;;;13.90;3.27;;;;;;;;;;5011466;28;20114;-86
2023/10/29 11:11:07;;;;;;;16.50;1.95;;;;;;;;;;5011421;28;20334;-85
2023/10/29 11:13:32;;;;;;;14.00;2.20;;;;;;;;;;5010760;28;20038;-86
2023/10/29 11:16:01;;;;;;;8.93;1.98;;;;;;;;;;5010021;28;20076;-87
2023/10/29 11:18:28;;;;;;;15.85;2.33;;;;;;;;;;5011406;28;20053;-87
2023/10/29 11:20:56;;;;;;;9.07;1.88;;;;;;;;;;5010547;28;20072;-89
2023/10/29 11:23:26;;;;;;;10.75;1.90;;;;;;;;;;5009463;28;20029;-86
2023/10/29 11:26:10;;;;;;;17.13;2.53;;;;;;;;;;4992552;28;20481;-87
2023/10/29 11:28:35;;;;;;;15.18;1.50;;;;;;;;;;5000907;28;20045;-87
2023/10/29 11:31:16;;;;;;;12.07;1.55;;;;;;;;;;5009275;28;20057;-87
2023/10/29 11:33:42;;;;;;;10.60;1.58;;;;;;;;;;5000987;28;20412;-87
2023/10/29 11:36:26;;;;;;;12.27;2.35;;;;;;;;;;5010105;28;20022;-89
2023/10/29 11:38:52;;;;;;;10.70;1.75;;;;;;;;;;5009943;28;20021;-89
2023/10/29 11:41:34;;;;;;;16.00;1.85;;;;;;;;;;5010171;28;20503;-88
2023/10/29 11:44:18;;;;;;;9.98;1.30;;;;;;;;;;5010149;28;20032;-87
2023/10/29 11:46:56;;;;;;;7.70;1.20;;;;;;;;;;5011567;28;20018;-87
2023/10/29 11:49:24;;;;;;;8.07;1.10;;;;;;;;;;5010243;28;20030;-87
2023/10/29 11:51:54;;;;;;;9.60;1.08;;;;;;;;;;5009599;28;20029;-86
2023/10/29 11:54:19;;;;;;;6.55;1.20;;;;;;;;;;5010990;28;20108;-87
2023/10/29 11:56:45;;;;;;;13.07;1.67;;;;;;;;;;5010762;28;20144;-87
2023/10/29 11:59:10;;;;;;;6.30;0.95;;;;;;;;;;5014275;28;20014;-88
2023/10/29 12:01:36;;;;;;;6.93;1.53;;;;;;;;;;5013340;28;20476;-88
2023/10/29 12:04:01;;;;;;;14.77;1.33;;;;;;;;;;5013258;28;20350;-89
2023/10/29 12:06:39;;;;;;;5.70;1.02;;;;;;;;;;5014239;28;20022;-89
2023/10/29 12:09:14;;;;;;;8.73;1.15;;;;;;;;;;5014075;28;20022;-89
2023/10/29 12:11:40;;;;;;;8.55;1.42;;;;;;;;;;5014618;28;20079;-89
2023/10/29 12:14:05;;;;;;;9.05;1.52;;;;;;;;;;5014449;28;20058;-90
2023/10/29 12:16:31;;;;;;;10.80;1.35;;;;;;;;;;5013243;28;20041;-89
2023/10/29 12:18:56;;;;;;;3.78;0.65;;;;;;;;;;5013367;28;20029;-90
2023/10/29 12:21:21;;;;;;;6.72;0.98;;;;;;;;;;5013807;28;20464;-90
2023/10/29 12:23:46;;;;;;;8.57;1.13;;;;;;;;;;5014389;28;20023;-89
2023/10/29 12:26:13;;;;;;;7.30;1.33;;;;;;;;;;5014245;28;20302;-89
2023/10/29 12:28:38;;;;;;;10.00;1.20;;;;;;;;;;5013027;28;20029;-89
2023/10/29 12:31:03;;;;;;;10.00;1.55;;;;;;;;;;5013476;28;20018;-88
2023/10/29 12:33:33;;;;;;;8.35;1.20;;;;;;;;;;5013711;28;20025;-89
2023/10/29 12:36:03;;;;;;;10.15;1.63;;;;;;;;;;5014201;28;20018;-89
2023/10/29 12:38:28;;;;;;;9.68;1.63;;;;;;;;;;5014055;28;20030;-88
2023/10/29 12:41:08;;;;;;;8.90;1.08;;;;;;;;;;5013791;28;20067;-89
2023/10/29 12:43:37;;;;;;;7.05;1.27;;;;;;;;;;5012755;28;20049;-89
2023/10/29 12:46:06;;;;;;;7.00;1.33;;;;;;;;;;5013257;28;20099;-89
2023/10/29 12:48:31;;;;;;;6.60;1.00;;;;;;;;;;5013369;28;20022;-89
2023/10/29 12:50:57;;;;;;;12.40;1.40;;;;;;;;;;5011870;28;20092;-89
2023/10/29 12:53:29;;;;;;;8.63;1.25;;;;;;;;;;5012298;28;20061;-89
2023/10/29 12:55:55;;;;;;;10.07;2.15;;;;;;;;;;5002163;28;20029;-88
2023/10/29 12:58:21;;;;;;;9.05;1.83;;;;;;;;;;5012051;28;20468;-88
2023/10/29 13:00:47;;;;;;;13.18;1.83;;;;;;;;;;5013115;28;20033;-88
2023/10/29 13:03:12;;;;;;;7.97;1.88;;;;;;;;;;5013045;28;20036;-89
2023/10/29 13:05:37;;;;;;;12.15;1.30;;;;;;;;;;5013748;28;20026;-88
2023/10/29 13:08:05;;;;;;;8.07;1.27;;;;;;;;;;5012954;28;20029;-88
2023/10/29 13:10:32;;;;;;;7.25;1.13;;;;;;;;;;5013496;28;20255;-89
2023/10/29 13:12:58;;;;;;;8.25;1.73;;;;;;;;;;5012137;28;20424;-88
2023/10/29 13:15:24;;;;;;;8.98;1.30;;;;;;;;;;5011980;28;20028;-88
2023/10/29 13:17:49;;;;;;;14.38;2.00;;;;;;;;;;5013434;28;20384;-89
2023/10/29 13:20:14;;;;;;;9.35;1.20;;;;;;;;;;5011327;28;20395;-89
2023/10/29 13:22:40;;;;;;;11.20;1.40;;;;;;;;;;5013187;28;20044;-90
2023/10/29 13:25:06;;;;;;;12.02;1.67;;;;;;;;;;5012066;28;20044;-89
2023/10/29 13:27:31;;;;;;;5.35;1.27;;;;;;;;;;5012541;28;20481;-89
2023/10/29 13:29:58;;;;;;;11.10;1.73;;;;;;;;;;5012324;28;20272;-89
2023/10/29 13:32:23;;;;;;;19.08;1.85;;;;;;;;;;5010892;28;20614;-90
2023/10/29 13:34:51;;;;;;;9.82;1.33;;;;;;;;;;5011578;28;20271;-89
2023/10/29 13:37:16;;;;;;;15.55;1.60;;;;;;;;;;5013745;28;20079;-90
2023/10/29 13:39:41;;;;;;;9.93;1.57;;;;;;;;;;5011457;28;20543;-90
2023/10/29 13:42:07;;;;;;;17.10;1.63;;;;;;;;;;4998187;28;20686;-89
2023/10/29 13:44:32;;;;;;;13.70;1.93;;;;;;;;;;5004462;28;20387;-89
2023/10/29 13:46:57;;;;;;;13.57;1.88;;;;;;;;;;5011482;28;20404;-89
2023/10/29 13:49:23;;;;;;;8.60;1.27;;;;;;;;;;5004316;28;20088;-88
2023/10/29 13:51:48;;;;;;;14.25;1.83;;;;;;;;;;5007284;28;20287;-89
2023/10/29 13:54:13;;;;;;;18.88;2.13;;;;;;;;;;5010671;28;20403;-89
2023/10/29 13:56:39;;;;;;;8.02;1.42;;;;;;;;;;5012501;28;20080;-89
2023/10/29 13:59:04;;;;;;;9.82;1.33;;;;;;;;;;5000133;28;20026;-89
2023/10/29 14:01:29;;;;;;;14.30;2.00;;;;;;;;;;4999874;28;20050;-89
2023/10/29 14:03:55;;;;;;;13.18;2.17;;;;;;;;;;5007672;28;20045;-89
2023/10/29 14:06:21;;;;;;;13.18;1.90;;;;;;;;;;5011860;28;20025;-88
2023/10/29 14:08:46;;;;;;;8.75;1.40;;;;;;;;;;5012233;28;20022;-89
2023/10/29 14:11:13;;;;;;;12.27;1.70;;;;;;;;;;5012075;28;20471;-89
2023/10/29 14:13:39;;;;;;;14.40;2.35;;;;;;;;;;5012259;28;20076;-89
2023/10/29 14:16:04;;;;;;;13.23;2.00;;;;;;;;;;5012276;28;20488;-89
2023/10/29 14:18:30;;;;;;;10.80;2.22;;;;;;;;;;5010109;28;20030;-89
2023/10/29 14:20:56;;;;;;;9.18;2.78;;;;;;;;;;5010571;28;20029;-89
2023/10/29 14:23:24;;;;;;;16.08;3.00;;;;;;;;;;5012295;28;20026;-89
2023/10/29 14:25:49;;;;;;;14.95;2.50;;;;;;;;;;5010932;28;20500;-90
2023/10/29 14:28:15;;;;;;;17.75;2.50;;;;;;;;;;5011107;28;20041;-89
2023/10/29 14:30:40;;;;;;;11.82;1.83;;;;;;;;;;5011046;28;20107;-89